createdAt,value
2023-03-07T00:01:03.122Z,99.90
2023-03-07T00:03:31.560Z,99.90
2023-03-07T00:06:03.735Z,99.90
2023-03-07T00:08:33.789Z,99.90
2023-03-07T00:11:03.222Z,99.90
2023-03-07T00:13:32.598Z,99.90
2023-03-07T00:16:04.670Z,99.90
2023-03-07T00:18:33.115Z,99.90
2023-03-07T00:21:02.026Z,99.90
2023-03-07T00:23:30.362Z,99.90
2023-03-07T00:26:02.160Z,99.90
2023-03-07T00:28:30.217Z,99.90
2023-03-07T00:31:03.471Z,99.90
2023-03-07T00:33:31.774Z,99.90
2023-03-07T00:36:01.491Z,99.90
2023-03-07T00:38:30.882Z,99.90
2023-03-07T00:41:02.637Z,99.90
2023-03-07T00:43:31.295Z,99.90
2023-03-07T00:45:59.928Z,99.90
2023-03-07T00:48:29.038Z,99.90
2023-03-07T00:50:57.634Z,99.90
2023-03-07T00:53:25.983Z,99.90
2023-03-07T00:55:59.636Z,99.90
2023-03-07T00:58:31.203Z,99.90
2023-03-07T01:00:59.774Z,99.90
2023-03-07T01:03:28.790Z,99.90
2023-03-07T01:05:57.259Z,99.90
2023-03-07T01:08:25.454Z,99.90
2023-03-07T01:10:53.362Z,99.90
2023-03-07T01:13:21.838Z,99.90
2023-03-07T01:15:51.313Z,99.90
2023-03-07T01:18:19.338Z,99.90
2023-03-07T01:20:47.480Z,99.90
2023-03-07T01:23:15.682Z,99.90
2023-03-07T01:25:44.715Z,99.90
2023-03-07T01:28:15.358Z,99.90
2023-03-07T01:30:43.328Z,99.90
2023-03-07T01:33:12.750Z,99.90
2023-03-07T01:35:41.360Z,99.90
2023-03-07T01:38:10.081Z,99.90
2023-03-07T01:40:40.138Z,99.90
2023-03-07T01:43:24.161Z,99.90
2023-03-07T01:46:38.112Z,99.90
2023-03-07T01:49:12.268Z,99.90
2023-03-07T01:51:44.653Z,99.90
2023-03-07T01:54:14.307Z,99.90
2023-03-07T01:56:44.127Z,99.90
2023-03-07T01:59:12.933Z,99.90
2023-03-07T02:01:41.354Z,99.90
2023-03-07T02:04:16.597Z,99.90
2023-03-07T02:06:44.568Z,99.90
2023-03-07T02:09:17.972Z,99.90
2023-03-07T02:11:47.122Z,99.90
2023-03-07T02:14:15.061Z,99.90
2023-03-07T02:16:43.879Z,99.90
2023-03-07T02:19:26.509Z,99.90
2023-03-07T02:22:06.105Z,99.90
2023-03-07T02:24:40.497Z,99.90
2023-03-07T02:27:10.002Z,99.90
2023-03-07T02:29:37.907Z,99.90
2023-03-07T02:32:06.383Z,99.90
2023-03-07T02:34:34.701Z,99.90
2023-03-07T02:37:06.074Z,99.90
2023-03-07T02:39:34.935Z,99.90
2023-03-07T02:42:07.534Z,99.90
2023-03-07T02:44:37.090Z,99.90
2023-03-07T02:47:08.866Z,99.90
2023-03-07T02:49:37.241Z,99.90
2023-03-07T02:52:06.256Z,99.90
2023-03-07T02:54:34.273Z,99.90
2023-03-07T02:57:02.434Z,99.90
2023-03-07T02:59:30.371Z,99.90
2023-03-07T03:01:59.733Z,99.90
2023-03-07T03:04:28.133Z,99.90
2023-03-07T03:06:56.235Z,99.90
2023-03-07T03:09:24.349Z,99.90
2023-03-07T03:11:52.362Z,99.90
2023-03-07T03:14:20.400Z,99.90
2023-03-07T03:16:49.598Z,99.90
2023-03-07T03:19:18.920Z,99.90
2023-03-07T03:21:47.017Z,99.90
2023-03-07T03:24:15.140Z,99.90
2023-03-07T03:26:43.253Z,99.90
2023-03-07T03:29:11.441Z,99.90
2023-03-07T03:31:39.597Z,99.90
2023-03-07T03:34:07.678Z,99.90
2023-03-07T03:36:37.128Z,99.90
2023-03-07T03:39:10.843Z,99.90
2023-03-07T03:41:39.095Z,99.90
2023-03-07T03:44:07.113Z,99.90
2023-03-07T03:46:35.257Z,99.90
2023-03-07T03:49:03.758Z,99.90
2023-03-07T03:51:32.124Z,99.90
2023-03-07T03:54:01.859Z,99.90
2023-03-07T03:56:30.334Z,99.90
2023-03-07T03:58:59.351Z,99.90
2023-03-07T04:01:28.930Z,99.90
2023-03-07T04:03:58.250Z,99.90
2023-03-07T04:06:28.040Z,99.90
2023-03-07T04:08:56.607Z,99.90
2023-03-07T04:11:26.729Z,99.90
2023-03-07T04:13:55.050Z,99.90
2023-03-07T04:16:23.766Z,99.90
2023-03-07T04:18:52.854Z,99.90
2023-03-07T04:21:22.349Z,99.90
2023-03-07T04:23:55.455Z,99.90
2023-03-07T04:26:25.138Z,99.90
2023-03-07T04:28:53.465Z,99.90
2023-03-07T04:31:23.510Z,99.90
2023-03-07T04:33:52.628Z,99.90
2023-03-07T04:36:21.911Z,99.90
2023-03-07T04:38:50.546Z,99.90
2023-03-07T04:41:20.586Z,99.90
2023-03-07T04:43:50.129Z,99.90
2023-03-07T04:46:19.042Z,99.90
2023-03-07T04:48:47.998Z,99.90
2023-03-07T04:51:16.566Z,99.90
2023-03-07T04:53:44.992Z,99.90
2023-03-07T04:56:15.260Z,99.90
2023-03-07T04:58:44.722Z,99.90
2023-03-07T05:01:14.850Z,99.90
2023-03-07T05:03:43.655Z,99.90
2023-03-07T05:06:15.227Z,99.90
2023-03-07T05:08:43.817Z,99.90
2023-03-07T05:11:12.041Z,99.90
2023-03-07T05:13:40.551Z,99.90
2023-03-07T05:16:09.694Z,99.90
2023-03-07T05:18:40.044Z,99.90
2023-03-07T05:21:08.768Z,99.90
2023-03-07T05:23:36.919Z,99.90
2023-03-07T05:26:05.325Z,99.90
2023-03-07T05:28:34.237Z,99.90
2023-03-07T05:31:02.693Z,99.90
2023-03-07T05:33:31.825Z,99.90
2023-03-07T05:36:03.760Z,99.90
2023-03-07T05:38:31.970Z,99.90
2023-03-07T05:41:00.189Z,99.90
2023-03-07T05:43:28.568Z,99.90
2023-03-07T05:45:56.592Z,99.90
2023-03-07T05:48:24.605Z,99.90
2023-03-07T05:50:52.786Z,99.90
2023-03-07T05:53:22.147Z,99.90
2023-03-07T05:55:50.077Z,99.90
2023-03-07T05:58:18.085Z,99.90
2023-03-07T06:00:46.080Z,99.90
2023-03-07T06:03:14.195Z,99.90
2023-03-07T06:05:42.274Z,99.90
2023-03-07T06:08:10.406Z,99.90
2023-03-07T06:10:40.379Z,99.90
2023-03-07T06:13:08.452Z,99.90
2023-03-07T06:15:36.421Z,99.90
2023-03-07T06:18:06.584Z,99.90
2023-03-07T06:20:34.685Z,99.90
2023-03-07T06:23:02.915Z,99.90
2023-03-07T06:25:30.874Z,99.90
2023-03-07T06:28:01.536Z,99.90
2023-03-07T06:30:31.064Z,99.90
2023-03-07T06:32:59.373Z,99.90
2023-03-07T06:35:27.519Z,99.90
2023-03-07T06:37:55.617Z,99.90
2023-03-07T06:40:23.605Z,99.90
2023-03-07T06:42:53.806Z,99.90
2023-03-07T06:45:23.178Z,99.90
2023-03-07T06:47:51.145Z,99.90
2023-03-07T06:50:29.880Z,99.90
2023-03-07T06:53:02.588Z,99.90
2023-03-07T06:55:30.558Z,99.90
2023-03-07T06:57:58.535Z,99.90
2023-03-07T07:00:28.311Z,99.90
2023-03-07T07:02:56.522Z,99.90
2023-03-07T07:05:24.906Z,99.90
2023-03-07T07:07:53.116Z,99.90
2023-03-07T07:10:21.343Z,99.90
2023-03-07T07:12:49.414Z,99.90
2023-03-07T07:15:17.625Z,99.90
2023-03-07T07:17:47.503Z,99.90
2023-03-07T07:20:16.392Z,99.90
2023-03-07T07:22:49.407Z,99.90
2023-03-07T07:25:18.185Z,99.90
2023-03-07T07:27:46.760Z,99.90
2023-03-07T07:30:16.822Z,99.90
2023-03-07T07:32:46.950Z,99.90
2023-03-07T07:35:15.953Z,99.90
2023-03-07T07:37:44.899Z,99.90
2023-03-07T07:40:15.343Z,99.90
2023-03-07T07:42:44.471Z,99.90
2023-03-07T07:45:13.172Z,99.90
2023-03-07T07:47:41.310Z,99.90
2023-03-07T07:50:11.770Z,99.90
2023-03-07T07:52:39.921Z,99.90
2023-03-07T07:55:08.492Z,99.90
2023-03-07T07:57:36.449Z,99.90
2023-03-07T08:00:05.446Z,99.90
2023-03-07T08:02:35.894Z,99.90
2023-03-07T08:05:05.063Z,99.90
2023-03-07T08:07:34.613Z,99.90
2023-03-07T08:10:02.623Z,99.90
2023-03-07T08:12:30.598Z,99.90
2023-03-07T08:14:58.593Z,99.90
2023-03-07T08:17:26.545Z,99.90
2023-03-07T08:19:54.504Z,99.90
2023-03-07T08:22:22.406Z,99.90
2023-03-07T08:24:51.756Z,99.90
2023-03-07T08:27:19.799Z,99.90
2023-03-07T08:29:49.623Z,99.90
2023-03-07T08:32:17.664Z,99.90
2023-03-07T08:34:45.679Z,99.90
2023-03-07T08:37:13.724Z,99.90
2023-03-07T08:39:41.687Z,99.90
2023-03-07T08:42:11.169Z,99.90
2023-03-07T08:44:39.877Z,99.90
2023-03-07T08:47:09.100Z,99.90
2023-03-07T08:49:37.180Z,99.90
2023-03-07T08:52:06.653Z,99.90
2023-03-07T08:54:36.121Z,99.90
2023-03-07T08:57:04.745Z,99.90
2023-03-07T08:59:34.723Z,99.90
2023-03-07T09:02:04.235Z,99.90
2023-03-07T09:04:32.630Z,99.90
2023-03-07T09:07:01.702Z,99.90
2023-03-07T09:09:30.015Z,99.90
2023-03-07T09:11:58.506Z,99.90
2023-03-07T09:14:27.275Z,99.90
2023-03-07T09:16:56.914Z,99.90
2023-03-07T09:19:28.364Z,99.90
2023-03-07T09:21:56.569Z,99.90
2023-03-07T09:24:24.533Z,99.90
2023-03-07T09:26:52.991Z,99.90
2023-03-07T09:29:20.976Z,99.90
2023-03-07T09:31:49.117Z,99.90
2023-03-07T09:34:18.640Z,99.90
2023-03-07T09:36:46.673Z,99.90
2023-03-07T09:39:15.482Z,99.90
2023-03-07T09:42:06.356Z,99.90
2023-03-07T09:44:45.318Z,99.90
2023-03-07T09:47:31.686Z,99.90
2023-03-07T09:50:03.529Z,99.90
2023-03-07T09:52:36.179Z,99.90
2023-03-07T09:55:06.908Z,99.90
2023-03-07T09:57:38.376Z,99.90
2023-03-07T10:00:15.679Z,99.90
2023-03-07T10:02:50.200Z,99.90
2023-03-07T10:05:31.669Z,99.90
2023-03-07T10:08:03.941Z,99.90
2023-03-07T10:10:39.139Z,99.90
2023-03-07T10:15:47.007Z,99.90
2023-03-07T10:18:32.895Z,99.80
2023-03-07T10:21:08.990Z,99.90
2023-03-07T10:23:59.206Z,98.70
2023-03-07T10:26:33.808Z,97.50
2023-03-07T10:29:11.643Z,95.00
2023-03-07T10:31:42.618Z,93.40
2023-03-07T10:34:26.439Z,91.20
2023-03-07T10:37:08.922Z,91.10
2023-03-07T10:39:44.581Z,90.40
2023-03-07T10:42:14.634Z,89.60
2023-03-07T10:44:45.318Z,87.50
2023-03-07T10:47:20.567Z,82.80
2023-03-07T10:49:50.206Z,83.40
2023-03-07T10:52:30.244Z,83.90
2023-03-07T10:55:31.694Z,85.10
2023-03-07T10:58:23.661Z,85.50
2023-03-07T11:01:17.698Z,85.40
2023-03-07T11:03:55.211Z,87.10
2023-03-07T11:06:34.969Z,87.20
2023-03-07T11:09:19.126Z,87.70
2023-03-07T11:11:56.775Z,87.00
2023-03-07T11:14:25.727Z,86.50
2023-03-07T11:16:56.747Z,86.20
2023-03-07T11:19:33.705Z,87.10
2023-03-07T11:22:03.918Z,87.50
2023-03-07T11:24:39.420Z,87.90
2023-03-07T11:27:07.734Z,88.20
2023-03-07T11:29:35.743Z,88.20
2023-03-07T11:32:20.546Z,89.60
2023-03-07T11:34:54.241Z,88.10
2023-03-07T11:37:29.932Z,88.70
2023-03-07T11:40:15.716Z,88.70
2023-03-07T11:43:03.281Z,89.00
2023-03-07T11:45:36.447Z,88.80
2023-03-07T11:48:16.468Z,89.40
2023-03-07T11:50:57.397Z,88.90
2023-03-07T11:53:53.971Z,88.70
2023-03-07T11:56:29.254Z,88.20
2023-03-07T11:59:29.044Z,88.80
2023-03-07T12:02:04.395Z,88.30
2023-03-07T12:05:06.912Z,87.80
2023-03-07T12:08:03.273Z,88.10
2023-03-07T12:10:42.482Z,87.90
2023-03-07T12:16:08.100Z,88.80
2023-03-07T12:18:53.340Z,88.60
2023-03-07T12:21:38.712Z,89.10
2023-03-07T12:24:14.269Z,88.80
2023-03-07T12:26:49.953Z,88.70
2023-03-07T12:29:27.578Z,88.70
2023-03-07T12:32:01.362Z,88.80
2023-03-07T12:34:37.552Z,89.30
2023-03-07T12:37:09.332Z,90.00
2023-03-07T12:39:46.204Z,90.20
2023-03-07T12:42:20.498Z,90.50
2023-03-07T12:45:12.879Z,90.80
2023-03-07T12:47:56.994Z,91.30
2023-03-07T12:50:31.879Z,91.10
2023-03-07T12:53:06.001Z,91.10
2023-03-07T12:55:39.977Z,91.20
2023-03-07T12:58:14.231Z,90.50
2023-03-07T13:00:48.461Z,90.20
2023-03-07T13:03:24.609Z,90.00
2023-03-07T13:05:52.924Z,89.30
2023-03-07T13:08:24.649Z,89.10
2023-03-07T13:10:52.916Z,89.30
2023-03-07T13:13:49.829Z,89.70
2023-03-07T13:16:40.400Z,89.10
2023-03-07T13:19:47.913Z,90.10
2023-03-07T13:22:53.883Z,89.30
2023-03-07T13:25:59.478Z,90.00
2023-03-07T13:28:51.576Z,89.40
2023-03-07T13:31:42.664Z,89.80
2023-03-07T13:34:53.031Z,89.60
2023-03-07T13:37:56.933Z,89.20
2023-03-07T13:40:50.920Z,88.50
2023-03-07T13:43:55.865Z,86.80
2023-03-07T13:46:55.626Z,85.90
2023-03-07T13:49:43.989Z,84.90
2023-03-07T13:52:40.186Z,85.20
2023-03-07T13:55:28.310Z,85.50
2023-03-07T13:57:59.499Z,84.80
2023-03-07T14:00:34.173Z,85.10
2023-03-07T14:03:03.896Z,84.80
2023-03-07T14:05:35.151Z,84.80
2023-03-07T14:08:04.020Z,84.40
2023-03-07T14:10:32.977Z,84.00
2023-03-07T14:13:25.359Z,84.10
2023-03-07T14:16:08.824Z,83.40
2023-03-07T14:18:49.456Z,83.50
2023-03-07T14:21:27.216Z,83.30
2023-03-07T14:24:23.254Z,82.80
2023-03-07T14:26:55.549Z,83.40
2023-03-07T14:29:24.918Z,82.90
2023-03-07T14:31:54.854Z,81.50
2023-03-07T14:34:29.790Z,81.70
2023-03-07T14:37:00.110Z,81.70
2023-03-07T14:39:41.728Z,81.70
2023-03-07T14:42:19.925Z,83.10
2023-03-07T14:45:11.111Z,82.80
2023-03-07T14:48:01.347Z,83.30
2023-03-07T14:50:32.938Z,83.10
2023-03-07T14:53:09.504Z,83.40
2023-03-07T14:55:40.842Z,83.40
2023-03-07T14:58:14.933Z,83.20
2023-03-07T15:00:43.525Z,84.80
2023-03-07T15:03:15.285Z,83.70
2023-03-07T15:05:52.239Z,83.90
2023-03-07T15:09:17.694Z,83.50
2023-03-07T15:12:03.100Z,84.40
2023-03-07T15:14:40.528Z,84.80
2023-03-07T15:17:15.402Z,84.10
2023-03-07T15:19:48.177Z,83.80
2023-03-07T15:22:57.088Z,83.60
2023-03-07T15:25:26.510Z,84.30
2023-03-07T15:28:00.832Z,83.90
2023-03-07T15:31:02.497Z,84.80
2023-03-07T15:33:34.338Z,84.10
2023-03-07T15:36:27.255Z,84.80
2023-03-07T15:39:24.342Z,84.70
2023-03-07T15:42:06.038Z,84.60
2023-03-07T15:44:36.393Z,84.50
2023-03-07T15:47:14.133Z,84.10
2023-03-07T15:49:44.943Z,84.70
2023-03-07T15:52:22.986Z,84.90
2023-03-07T15:54:53.503Z,86.20
2023-03-07T15:57:29.500Z,86.40
2023-03-07T16:00:04.859Z,86.30
2023-03-07T16:02:45.629Z,86.20
2023-03-07T16:05:36.143Z,85.80
2023-03-07T16:08:07.245Z,85.80
2023-03-07T16:10:35.548Z,86.10
2023-03-07T16:13:14.136Z,86.20
2023-03-07T16:15:43.035Z,86.20
2023-03-07T16:18:23.376Z,86.40
2023-03-07T16:20:55.551Z,87.10
2023-03-07T16:23:23.656Z,86.50
2023-03-07T16:25:52.172Z,86.80
2023-03-07T16:28:21.797Z,87.10
2023-03-07T16:31:03.927Z,87.30
2023-03-07T16:33:33.058Z,87.20
2023-03-07T16:36:05.846Z,87.40
2023-03-07T16:38:34.220Z,87.60
2023-03-07T16:41:04.526Z,89.00
2023-03-07T16:43:39.467Z,88.20
2023-03-07T16:46:17.028Z,88.70
2023-03-07T16:48:46.446Z,88.20
2023-03-07T16:52:21.630Z,88.60
2023-03-07T17:14:45.037Z,89.50
2023-03-07T17:17:19.974Z,89.80
2023-03-07T17:19:47.895Z,90.10
2023-03-07T17:22:15.913Z,89.80
2023-03-07T17:24:44.116Z,90.00
2023-03-07T17:27:12.410Z,90.20
2023-03-07T17:29:44.243Z,90.00
2023-03-07T17:32:12.821Z,89.40
2023-03-07T17:34:41.167Z,90.00
2023-03-07T17:37:09.553Z,89.40
2023-03-07T17:39:38.933Z,89.40
2023-03-07T17:42:07.568Z,89.50
2023-03-07T17:44:36.789Z,89.80
2023-03-07T17:49:46.886Z,90.00
2023-03-07T17:52:14.964Z,90.10
2023-03-07T17:54:44.186Z,89.40
2023-03-07T17:57:12.475Z,89.90
2023-03-07T17:59:40.433Z,90.10
2023-03-07T18:04:52.635Z,90.20
2023-03-07T18:07:20.651Z,90.30
2023-03-07T18:09:56.081Z,90.30
2023-03-07T18:12:35.001Z,90.20
2023-03-07T18:15:03.003Z,90.60
2023-03-07T18:17:41.796Z,90.80
2023-03-07T18:20:17.525Z,90.70
2023-03-07T18:22:45.897Z,90.80
2023-03-07T18:25:16.575Z,90.80
2023-03-07T18:27:53.922Z,91.00
2023-03-07T18:30:22.237Z,90.80
2023-03-07T18:32:55.272Z,91.00
2023-03-07T18:35:57.267Z,91.10
2023-03-07T18:38:44.963Z,91.30
2023-03-07T18:41:14.719Z,91.60
2023-03-07T18:43:43.352Z,92.10
2023-03-07T18:46:13.857Z,92.30
2023-03-07T18:48:41.962Z,92.20
2023-03-07T18:51:13.510Z,92.50
2023-03-07T18:53:41.983Z,92.50
2023-03-07T18:56:11.988Z,92.50
2023-03-07T18:58:40.529Z,92.50
2023-03-07T19:01:13.626Z,92.90
2023-03-07T19:03:45.658Z,92.60
2023-03-07T19:06:17.578Z,92.80
2023-03-07T19:11:36.578Z,93.20
2023-03-07T19:14:08.729Z,93.70
2023-03-07T19:16:38.886Z,93.20
2023-03-07T19:19:09.235Z,93.50
2023-03-07T19:21:38.629Z,93.50
2023-03-07T19:24:07.848Z,93.60
2023-03-07T19:26:36.147Z,93.90
2023-03-07T19:29:19.290Z,93.80
2023-03-07T19:31:47.534Z,93.90
2023-03-07T19:34:15.929Z,94.60
2023-03-07T19:36:45.337Z,93.90
2023-03-07T19:39:20.696Z,94.10
2023-03-07T19:41:49.318Z,94.20
2023-03-07T19:44:18.035Z,94.40
2023-03-07T19:47:06.572Z,94.50
2023-03-07T19:49:35.890Z,94.50
2023-03-07T19:52:06.318Z,94.50
2023-03-07T19:54:34.372Z,94.70
2023-03-07T19:57:04.271Z,94.80
2023-03-07T19:59:32.363Z,94.60
2023-03-07T20:02:00.526Z,94.90
2023-03-07T20:04:29.971Z,95.70
2023-03-07T20:06:59.857Z,95.10
2023-03-07T20:09:29.384Z,95.00
2023-03-07T20:11:57.522Z,94.90
2023-03-07T20:14:26.823Z,94.90
2023-03-07T20:16:54.801Z,94.80
2023-03-07T20:19:26.936Z,95.00
2023-03-07T20:21:54.971Z,94.90
2023-03-07T20:24:24.575Z,94.90
2023-03-07T20:26:54.000Z,95.10
2023-03-07T20:29:22.062Z,95.00
2023-03-07T20:31:50.883Z,95.20
2023-03-07T20:34:19.209Z,95.10
2023-03-07T20:36:50.848Z,95.70
2023-03-07T20:39:20.003Z,95.10
2023-03-07T20:41:48.851Z,95.20
2023-03-07T20:47:17.303Z,95.10
2023-03-07T20:49:45.406Z,95.20
2023-03-07T20:55:54.768Z,95.00
2023-03-07T20:58:25.011Z,95.00
2023-03-07T21:00:59.287Z,94.80
2023-03-07T21:03:29.763Z,95.30
2023-03-07T21:06:02.724Z,95.00
2023-03-07T21:08:32.744Z,94.70
2023-03-07T21:11:31.679Z,94.70
2023-03-07T21:14:55.880Z,95.00
2023-03-07T21:17:26.787Z,94.70
2023-03-07T21:20:25.854Z,94.70
2023-03-07T21:23:22.904Z,94.70
2023-03-07T21:25:51.846Z,94.40
2023-03-07T21:28:20.812Z,94.10
2023-03-07T21:30:49.740Z,94.00
2023-03-07T21:33:20.209Z,94.10
2023-03-07T21:38:32.357Z,94.00
2023-03-07T21:41:00.831Z,93.90
2023-03-07T21:43:29.514Z,94.00
2023-03-07T21:45:57.633Z,94.10
2023-03-07T21:48:27.013Z,93.90
2023-03-07T21:50:55.421Z,94.20
2023-03-07T21:53:23.542Z,93.80
2023-03-07T21:55:52.275Z,93.80
2023-03-07T21:58:20.624Z,94.00
2023-03-07T22:00:49.026Z,93.90
2023-03-07T22:03:17.294Z,94.00
2023-03-07T22:05:46.788Z,93.90
2023-03-07T22:08:16.048Z,93.90
2023-03-07T22:10:44.381Z,94.00
2023-03-07T22:13:12.537Z,94.20
2023-03-07T22:15:40.850Z,94.00
2023-03-07T22:18:08.776Z,94.20
2023-03-07T22:20:39.618Z,94.00
2023-03-07T22:23:08.853Z,94.30
2023-03-07T22:25:36.760Z,94.10
2023-03-07T22:28:04.922Z,94.30
2023-03-07T22:30:33.130Z,94.20
2023-03-07T22:33:01.162Z,94.30
2023-03-07T22:35:29.117Z,94.20
2023-03-07T22:37:57.141Z,94.10
2023-03-07T22:40:26.638Z,94.10
2023-03-07T22:42:54.510Z,94.30
2023-03-07T22:45:22.413Z,94.20
2023-03-07T22:47:50.308Z,94.40
2023-03-07T22:50:18.627Z,94.50
2023-03-07T22:52:46.632Z,94.40
2023-03-07T22:55:14.607Z,94.90
2023-03-07T22:57:43.900Z,94.70
2023-03-07T23:00:13.084Z,94.60
2023-03-07T23:02:41.139Z,94.70
2023-03-07T23:05:09.554Z,94.60
2023-03-07T23:07:37.493Z,94.70
2023-03-07T23:10:06.012Z,94.80
2023-03-07T23:12:34.085Z,95.00
2023-03-07T23:15:04.363Z,94.90
2023-03-07T23:17:32.274Z,94.80
2023-03-07T23:20:00.316Z,94.80
2023-03-07T23:22:28.285Z,95.10
2023-03-07T23:24:56.152Z,95.00
2023-03-07T23:27:24.118Z,95.10
2023-03-07T23:29:52.087Z,95.20
2023-03-07T23:32:21.410Z,95.00
2023-03-07T23:34:49.281Z,95.20
2023-03-07T23:37:17.245Z,95.10
2023-03-07T23:39:45.154Z,94.90
2023-03-07T23:42:13.524Z,94.90
2023-03-07T23:44:41.755Z,95.00
2023-03-07T23:47:09.708Z,94.90
2023-03-07T23:49:39.098Z,94.80
2023-03-07T23:52:07.078Z,95.20
2023-03-07T23:54:35.026Z,95.10
2023-03-07T23:57:02.972Z,95.10
2023-03-07T23:59:30.839Z,95.00
